18 Jun 2019 02:52 UTC 2019169+02:52 UTC

Overview Datums Bench Marks Data Query Site Visit Daily QC Messages Attributes

171: National Park Service - Bird Island

27° 29' 4" N   97° 19' 5" W
NPSBI
United States National Park Service United States National Park Service

Station Information

National Park Service - Bird Island
National Park Service - Bird Island
more pictures
 
Station Name:National Park Service - Bird Island
DNR ID:171
Location:27° 29' 4" N, 97° 19' 5" W

Water Level Forecasts

Latest Observations

Series Metric English Marine Observed at
Water Temperature 30.0 °C 86.0 °F 86.0 °F Jun 17 21:30 CDT
00h19m ago
Salinity 37.100 psu 37.100 psu 37.100 psu Jun 17 21:30 CDT
00h19m ago
Turbidity 6 ntu 6 ntu 6 ntu Jun 17 21:30 CDT
00h19m ago
Dissolved Oxygen 6.54 mg/L 0.000408 lb/ft3 0.000408 lb/ft3 Jun 17 21:30 CDT
00h19m ago

Maps

National Park Service - Bird Island
All Stations in Area
Entire Network
 

Recent Observations

Date/Time Water
Temp (°F)
Sal (psu) pH (pH) Turb (ntu) DO (lb/ft3)
Jun 17 21:00 CDT 86.9 37.100 6 0.000473
Jun 17 20:00 CDT 87.6 37.100 7 0.000544
Jun 17 19:00 CDT 88.3 37.100 7 0.000578
Jun 17 18:00 CDT 88.3 37.000 7 0.000594
Jun 17 17:00 CDT 88.0 37.200 5 0.000587
Jun 17 16:00 CDT 88.0 37.200 5 0.000531
Jun 17 15:00 CDT 85.3 36.900 5 0.000522
Jun 17 14:00 CDT 84.9 37.100 5 0.000459
Jun 17 13:00 CDT 84.4 37.100 6 0.000379
Jun 17 12:00 CDT 83.8 37.300 4 0.000375
Jun 17 11:00 CDT 82.6 37.200 6 0.000345
Jun 17 10:00 CDT 79.3 36.500 6 0.000311
Jun 17 09:00 CDT 80.6 36.800 8 0.000252
Jun 17 08:00 CDT 81.7 36.900 10 0.000222
Jun 17 07:00 CDT 82.6 37.000 15 0.000217
Jun 17 06:00 CDT 83.3 37.300 24 0.000215
Jun 17 05:00 CDT 84.0 37.400 4 0.000218
Jun 17 04:00 CDT 84.2 37.400 5 0.000222
Jun 17 03:00 CDT 84.4 37.300 5 0.000233
Jun 17 02:00 CDT 84.7 37.200 5 0.000242
Jun 17 01:00 CDT 84.9 37.200 6 0.000277
Jun 17 00:00 CDT 85.3 37.100 6 0.000277
Jun 16 23:00 CDT 85.8 37.000 6 0.000283
Jun 16 22:00 CDT 86.2 36.900 6 0.000328
Jun 16 21:00 CDT 86.4 36.900 6 0.000358

Historical Data Availability